createdAt,value
2018-11-22T12:17:51.694Z,83.90
2018-11-22T12:20:21.007Z,84.50
2018-11-22T12:22:51.078Z,84.80
2018-11-22T12:25:21.221Z,85.70
2018-11-22T12:27:51.513Z,84.50
2018-11-22T12:30:21.647Z,85.10
2018-11-22T12:32:55.717Z,85.20
2018-11-22T12:35:30.713Z,85.60
2018-11-22T12:38:04.951Z,85.20
2018-11-22T12:40:33.851Z,84.60
2018-11-22T12:43:02.718Z,84.50
2018-11-22T12:45:32.901Z,85.00
2018-11-22T12:48:01.808Z,84.80
2018-11-22T12:50:44.941Z,84.10
2018-11-22T12:53:16.029Z,84.40
2018-11-22T12:55:45.932Z,84.50
2018-11-22T12:58:14.911Z,85.20
2018-11-22T13:00:43.842Z,86.70
2018-11-22T13:03:13.906Z,86.70
2018-11-22T13:05:43.473Z,90.30
2018-11-22T13:08:13.300Z,86.20
2018-11-22T13:10:43.044Z,87.30
2018-11-22T13:13:12.437Z,87.40
2018-11-22T13:15:41.547Z,86.70
2018-11-22T13:18:11.133Z,86.00
2018-11-22T13:20:40.648Z,85.90
2018-11-22T13:23:11.517Z,85.80
2018-11-22T14:10:47.973Z,83.40
2018-11-22T14:13:26.285Z,84.00
2018-11-22T14:15:57.799Z,85.00
2018-11-22T14:18:27.455Z,85.40
2018-11-22T14:21:00.281Z,84.50
2018-11-22T14:23:31.120Z,84.60
2018-11-22T14:26:02.845Z,83.70
2018-11-22T14:28:34.624Z,83.70
2018-11-22T14:31:04.665Z,83.30
2018-11-22T14:33:34.339Z,82.80
2018-11-22T14:36:05.222Z,82.80
2018-11-22T14:38:36.417Z,82.90
2018-11-22T14:41:06.639Z,83.80
2018-11-22T14:43:38.930Z,83.80
2018-11-22T14:46:08.780Z,83.50
2018-11-22T14:48:38.158Z,84.60
2018-11-22T14:51:13.703Z,84.00
2018-11-22T14:53:42.770Z,83.70
2018-11-22T14:56:11.604Z,83.90
2018-11-22T14:58:40.578Z,84.00
2018-11-22T15:01:12.125Z,84.00
2018-11-22T15:03:41.868Z,83.90
2018-11-22T15:06:12.557Z,83.70
2018-11-22T15:08:41.550Z,84.00
2018-11-22T15:11:12.659Z,83.90
2018-11-22T15:13:43.388Z,84.30
2018-11-22T15:16:18.571Z,84.20
2018-11-22T15:18:47.444Z,84.10
2018-11-22T15:21:18.013Z,84.00
2018-11-22T15:23:48.756Z,84.30
2018-11-22T15:26:18.232Z,84.40
2018-11-22T15:28:49.161Z,84.20
2018-11-22T15:43:45.599Z,85.60
2018-11-22T15:46:19.787Z,86.40
2018-11-22T15:48:49.809Z,85.80
2018-11-22T15:51:20.881Z,85.70
2018-11-22T15:53:49.845Z,85.40
2018-11-22T15:56:20.090Z,85.40
2018-11-22T15:58:51.237Z,85.30
2018-11-22T16:01:22.947Z,84.90
2018-11-22T16:03:53.101Z,85.00
2018-11-22T16:06:21.964Z,85.60
2018-11-22T16:08:51.857Z,86.00
2018-11-22T16:11:25.538Z,86.00
2018-11-22T16:14:00.870Z,85.60
2018-11-22T16:16:30.165Z,85.90
2018-11-22T16:18:59.104Z,85.80
2018-11-22T16:21:27.940Z,85.90
2018-11-22T16:23:56.776Z,86.10
2018-11-22T16:26:25.579Z,86.30
2018-11-22T16:28:54.461Z,86.50
2018-11-22T16:31:23.287Z,86.60
2018-11-22T16:33:52.550Z,86.80
2018-11-22T16:36:21.312Z,87.30
2018-11-22T16:38:50.183Z,86.50
2018-11-22T16:41:19.032Z,87.00
2018-11-22T16:43:48.188Z,86.60
2018-11-22T16:46:17.027Z,86.40
2018-11-22T16:48:45.839Z,86.50
2018-11-22T16:51:14.668Z,86.50
2018-11-22T16:53:43.490Z,87.00
2018-11-22T16:56:12.300Z,86.50
2018-11-22T16:58:41.107Z,87.20
2018-11-22T17:01:09.931Z,87.50
2018-11-22T17:03:38.757Z,87.60
2018-11-22T17:06:07.589Z,87.40
2018-11-22T17:08:36.453Z,87.90
2018-11-22T17:11:05.366Z,89.00
2018-11-22T17:13:34.182Z,88.80
2018-11-22T17:16:03.327Z,88.70
2018-11-22T17:18:32.188Z,88.30
2018-11-22T17:21:01.063Z,88.40
2018-11-22T17:23:29.964Z,88.10
2018-11-22T17:25:58.907Z,87.90
2018-11-22T17:28:27.789Z,88.00
2018-11-22T17:30:56.770Z,88.00
2018-11-22T17:33:25.658Z,88.40
2018-11-22T17:35:55.208Z,88.40
2018-11-22T17:38:24.066Z,88.60
2018-11-22T17:40:53.217Z,88.40
2018-11-22T17:43:22.133Z,88.70
2018-11-22T17:45:52.071Z,88.40
2018-11-22T17:48:20.953Z,88.70
2018-11-22T17:50:50.135Z,88.50
2018-11-22T17:53:19.343Z,88.70
2018-11-22T17:55:48.188Z,88.70
2018-11-22T17:58:18.073Z,88.50
2018-11-22T18:00:50.420Z,88.40
2018-11-22T18:03:21.606Z,88.40
2018-11-22T18:05:50.992Z,88.60
2018-11-22T18:08:19.973Z,89.00
2018-11-22T18:10:48.902Z,89.00
2018-11-22T18:13:17.766Z,89.20
2018-11-22T18:15:52.132Z,89.30
2018-11-22T18:18:20.965Z,89.10
2018-11-22T18:20:49.957Z,88.90
2018-11-22T18:23:19.437Z,89.40
2018-11-22T18:25:49.004Z,90.00
2018-11-22T18:28:17.227Z,90.00
2018-11-22T18:30:46.069Z,90.20
2018-11-22T18:33:14.958Z,90.30
2018-11-22T18:35:43.846Z,90.20
2018-11-22T18:38:12.702Z,90.20
2018-11-22T18:40:42.597Z,90.30
2018-11-22T18:43:11.541Z,90.50
2018-11-22T18:45:41.704Z,90.50
2018-11-22T18:48:12.114Z,90.20
2018-11-22T18:50:41.364Z,90.00
2018-11-22T18:53:11.398Z,90.10
2018-11-22T18:55:39.492Z,90.30
2018-11-22T18:58:08.397Z,90.40
2018-11-22T19:00:38.775Z,90.40
2018-11-22T19:03:09.293Z,90.50
2018-11-22T19:05:38.361Z,90.60
2018-11-22T19:08:07.273Z,90.30
2018-11-22T19:10:37.630Z,90.20
2018-11-22T19:13:07.876Z,90.10
2018-11-22T19:15:39.359Z,90.20
2018-11-22T19:18:08.985Z,90.30
2018-11-22T19:20:40.326Z,90.60
2018-11-22T19:23:09.935Z,90.50
2018-11-22T19:25:38.929Z,90.50
2018-11-22T19:28:08.361Z,90.40
2018-11-22T19:30:38.762Z,90.20
2018-11-22T19:33:09.148Z,90.90
2018-11-22T19:35:40.873Z,90.40
2018-11-22T19:38:09.895Z,90.40
2018-11-22T19:40:39.501Z,90.40
2018-11-22T19:43:09.242Z,90.50
2018-11-22T19:45:40.041Z,90.70
2018-11-22T19:48:09.101Z,90.80
2018-11-22T19:50:38.086Z,90.80
2018-11-22T19:53:08.535Z,90.70
2018-11-22T19:55:38.021Z,90.70
2018-11-22T19:58:08.335Z,90.70
2018-11-22T20:00:37.459Z,90.60
2018-11-22T20:03:07.143Z,90.60
2018-11-22T20:05:37.285Z,90.70
2018-11-22T20:08:07.880Z,90.80
2018-11-22T20:10:38.162Z,91.60
2018-11-22T20:13:07.044Z,91.10
2018-11-22T20:15:36.007Z,91.20
2018-11-22T20:18:06.201Z,91.50
2018-11-22T20:20:35.184Z,91.80
2018-11-22T20:23:04.230Z,91.70
2018-11-22T20:25:33.170Z,91.70
2018-11-22T20:28:02.012Z,91.50
2018-11-22T20:30:35.113Z,91.70
2018-11-22T20:33:04.029Z,91.90
2018-11-22T20:35:33.037Z,91.70
2018-11-22T20:38:01.886Z,91.40
2018-11-22T20:40:32.218Z,91.40
2018-11-22T20:43:01.366Z,91.70
2018-11-22T20:45:31.069Z,91.70
2018-11-22T20:48:01.565Z,91.90
2018-11-22T20:50:30.973Z,91.90
2018-11-22T20:52:59.812Z,91.90
2018-11-22T20:55:30.061Z,92.30
2018-11-22T20:58:00.262Z,92.00
2018-11-22T21:00:31.344Z,92.10
2018-11-22T21:03:00.222Z,92.30
2018-11-22T21:05:29.672Z,92.20
2018-11-22T21:07:58.592Z,92.40
2018-11-22T21:10:28.864Z,92.00
2018-11-22T21:12:57.748Z,92.20
2018-11-22T21:15:27.804Z,92.00
2018-11-22T21:17:59.265Z,92.10
2018-11-22T21:20:29.770Z,92.40
2018-11-22T21:22:58.688Z,92.70
2018-11-22T21:25:27.589Z,92.80
2018-11-22T21:27:57.145Z,92.70
2018-11-22T21:30:27.472Z,92.90
2018-11-22T21:32:56.931Z,92.90
2018-11-22T21:35:25.856Z,92.90
2018-11-22T21:37:55.681Z,92.90
2018-11-22T21:40:25.117Z,92.70
2018-11-22T21:42:54.040Z,92.60
2018-11-22T21:45:23.989Z,92.60
2018-11-22T21:47:53.145Z,92.80
2018-11-22T21:50:23.429Z,92.90
2018-11-22T21:52:52.492Z,92.80
2018-11-22T21:55:23.598Z,92.70
2018-11-22T21:57:53.580Z,92.80
2018-11-22T22:00:25.293Z,92.70
2018-11-22T22:02:58.219Z,92.80
2018-11-22T22:05:27.141Z,92.90
2018-11-22T22:07:56.100Z,92.90
2018-11-22T22:10:24.982Z,92.80
2018-11-22T22:12:53.919Z,92.60
2018-11-22T22:15:25.005Z,92.50
2018-11-22T22:17:53.882Z,92.50
2018-11-22T22:20:25.102Z,92.60
2018-11-22T22:22:55.198Z,92.80
2018-11-22T22:25:26.240Z,92.60
2018-11-22T22:27:55.607Z,92.70
2018-11-22T22:30:25.846Z,92.70
2018-11-22T22:32:56.073Z,93.00
2018-11-22T22:35:25.066Z,92.70
2018-11-22T22:37:54.193Z,92.80
2018-11-22T22:40:24.359Z,92.70
2018-11-22T22:42:54.289Z,92.60
2018-11-22T22:45:24.257Z,92.60
2018-11-22T22:47:53.385Z,92.50
2018-11-22T22:50:24.437Z,92.40
2018-11-22T22:52:54.555Z,93.00
2018-11-22T22:55:23.540Z,92.90
2018-11-22T22:57:52.451Z,93.00
2018-11-22T23:00:27.367Z,93.00
2018-11-22T23:02:58.591Z,93.20
2018-11-22T23:05:27.957Z,93.30
2018-11-22T23:07:56.877Z,93.60
2018-11-22T23:10:26.124Z,94.00
2018-11-22T23:12:55.713Z,93.90
2018-11-22T23:15:25.441Z,93.90
2018-11-22T23:17:54.269Z,93.90
2018-11-22T23:20:24.638Z,93.70
2018-11-22T23:22:53.667Z,93.40
2018-11-22T23:25:23.485Z,93.30
2018-11-22T23:27:52.449Z,93.50
2018-11-22T23:30:24.611Z,93.50
2018-11-22T23:32:54.628Z,93.60
2018-11-22T23:35:23.694Z,93.70
2018-11-22T23:37:52.890Z,93.90
2018-11-22T23:40:22.982Z,93.80
2018-11-22T23:42:51.945Z,94.20
2018-11-22T23:45:22.051Z,94.00
2018-11-22T23:47:51.937Z,93.90
2018-11-22T23:50:28.783Z,93.60
2018-11-22T23:52:58.646Z,93.40
2018-11-22T23:55:27.554Z,93.40
2018-11-22T23:57:56.539Z,93.60
